Etusivu
METAR-TAF:

METAR-TAF

Lentoasemat :

Newport, Vermont, Yhdysvallat

Leveyspiiri: 44-53-20N, Pituuspiiri: 072-13-45W, korkeus merenpinnasta: 283 m

Tämänhetkinen sää

Tämä raportti tehtiin 22 minuuttia sitten, kello 21.35 UTC
Tuuli 10 kn etelästä/kaakosta
Lämpötila 18°C
Kosteus 49%
Ilmanpaine 1015 hPa
Näkyvyys: 16.1 km
Pilvistä 10000 ft:n korkeudessa

METAR: KEFK 252135Z AUTO 16010KT 10SM OVC100 18/07 A2996 RMK AO2 T01760068

Aika: 17:57 (21:57 UTC)


TAF: puuttuu

Säähavainnot ja -ennusteet yli 4000 lentoasemalta (METAR- ja TAF-raportit).

Käytössä olevat sääasemat on merkitty karttaan keltaisilla ja punaisilla pisteillä.

Aseta hiiri pisteen päälle nähdäksesi sääaseman nimen.

Klikkaa sitten nähdäksesi säähavainnot ja -ennusteet.

Kartan vaihtaminen: klikkaa mustalla rastilla varustettuja vihreitä pisteitä, niin voit zoomata sisään; viivalla varustettua vihreää pistettä, niin voit zoomata ulos tai vihreitä nuolia, niin pääset viereisille kartoille.


METAR-TAF: